Time;durP1;ratioP1;P1;durP2;ratioP2;P2;SDS_P1;SDS_P2;PMS_P1;PMS_P2;Temp;Humidity;BMP_temperature;BMP_pressure;BME280_temperature;BME280_humidity;BME280_pressure;Samples;Min_cycle;Max_cycle;Signal;HPM_P1;HPM_P2
2022/03/28 00:02:46;;;;;;;0.50;0.50;;;7.00;99.90;;;;;;5051263;28;20427;-69
2022/03/28 00:05:34;;;;;;;0.50;0.50;;;6.90;99.90;;;;;;5051430;28;20433;-69
2022/03/28 00:08:21;;;;;;;0.50;0.50;;;6.90;99.90;;;;;;5051470;28;20471;-69
2022/03/28 00:11:08;;;;;;;0.50;0.50;;;6.80;99.90;;;;;;5051527;28;20428;-68
2022/03/28 00:13:56;;;;;;;0.50;0.50;;;6.80;99.90;;;;;;5051391;28;20466;-69
2022/03/28 00:16:43;;;;;;;0.50;0.50;;;6.80;99.90;;;;;;5051409;28;20511;-70
2022/03/28 00:19:30;;;;;;;0.50;0.50;;;6.80;99.90;;;;;;5050641;28;20861;-69
2022/03/28 00:22:18;;;;;;;0.50;0.50;;;6.80;99.90;;;;;;5051313;28;20796;-69
2022/03/28 00:25:06;;;;;;;0.40;0.40;;;6.90;99.90;;;;;;5051192;28;20444;-68
2022/03/28 00:27:53;;;;;;;0.50;0.50;;;6.90;99.90;;;;;;5051176;28;20461;-69
2022/03/28 00:30:40;;;;;;;0.50;0.50;;;7.00;99.90;;;;;;5055091;28;20432;-70
2022/03/28 00:33:27;;;;;;;1.53;1.43;;;7.00;99.90;;;;;;5055170;28;20427;-68
2022/03/28 00:36:14;;;;;;;0.50;0.50;;;7.00;99.90;;;;;;5054468;28;20424;-69
2022/03/28 00:39:03;;;;;;;0.97;0.97;;;7.00;99.90;;;;;;5055249;28;20448;-69
2022/03/28 00:41:51;;;;;;;0.97;0.97;;;7.00;99.90;;;;;;5053698;28;20417;-69
2022/03/28 00:44:37;;;;;;;0.50;0.50;;;6.90;99.90;;;;;;5054520;28;20424;-69
2022/03/28 00:47:24;;;;;;;0.50;0.50;;;6.90;99.90;;;;;;5055012;28;20467;-70
2022/03/28 00:50:11;;;;;;;0.50;0.50;;;6.90;99.90;;;;;;5054917;28;20420;-69
2022/03/28 00:53:00;;;;;;;0.50;0.50;;;6.80;99.90;;;;;;5054857;28;20490;-69
2022/03/28 00:55:49;;;;;;;1.50;0.80;;;6.80;99.90;;;;;;5055268;28;20804;-70
2022/03/28 00:58:36;;;;;;;0.50;0.50;;;6.80;99.90;;;;;;5034896;28;20441;-70
2022/03/28 01:01:23;;;;;;;0.50;0.50;;;6.70;99.90;;;;;;5035169;28;20426;-69
2022/03/28 01:04:10;;;;;;;0.50;0.50;;;6.70;99.90;;;;;;5035840;28;20429;-68
2022/03/28 01:06:57;;;;;;;0.50;0.50;;;6.70;99.90;;;;;;5035776;28;20465;-70
2022/03/28 01:09:44;;;;;;;0.50;0.50;;;6.70;99.90;;;;;;5035295;28;20562;-70
2022/03/28 01:12:34;;;;;;;0.50;0.50;;;6.60;99.90;;;;;;5035117;28;20483;-70
2022/03/28 01:15:21;;;;;;;0.50;0.50;;;6.60;99.90;;;;;;5035497;28;20965;-68
2022/03/28 01:18:09;;;;;;;0.50;0.50;;;6.60;99.90;;;;;;5035449;28;20449;-69
2022/03/28 01:20:58;;;;;;;0.50;0.50;;;6.70;99.90;;;;;;5035325;28;20448;-69
2022/03/28 01:23:45;;;;;;;0.50;0.50;;;6.60;99.90;;;;;;5035041;28;20807;-68
2022/03/28 01:26:32;;;;;;;0.50;0.50;;;6.50;99.90;;;;;;5035031;28;20475;-69
2022/03/28 01:29:19;;;;;;;0.50;0.50;;;6.50;99.90;;;;;;5035643;28;20865;-69
2022/03/28 01:32:07;;;;;;;1.63;1.53;;;6.50;99.90;;;;;;5035121;28;20422;-69
2022/03/28 01:34:54;;;;;;;0.50;0.50;;;6.50;99.90;;;;;;5035653;28;20418;-69
2022/03/28 01:37:43;;;;;;;0.50;0.50;;;6.50;99.90;;;;;;5035550;28;20432;-70
2022/03/28 01:40:31;;;;;;;0.50;0.50;;;6.40;99.90;;;;;;5034083;28;20445;-70
2022/03/28 01:43:18;;;;;;;0.50;0.50;;;6.40;99.90;;;;;;5038383;28;20429;-68
2022/03/28 01:46:05;;;;;;;0.50;0.50;;;6.40;99.90;;;;;;5040955;28;20665;-71
2022/03/28 01:48:52;;;;;;;1.27;1.27;;;6.30;99.90;;;;;;5038236;28;20492;-69
2022/03/28 01:51:39;;;;;;;0.50;0.50;;;6.30;99.90;;;;;;5041777;28;20426;-69
2022/03/28 01:54:27;;;;;;;0.50;0.50;;;6.30;99.90;;;;;;5042399;28;20820;-70
2022/03/28 01:57:14;;;;;;;0.50;0.50;;;6.30;99.90;;;;;;5058295;28;20925;-70
2022/03/28 02:00:01;;;;;;;0.50;0.50;;;6.30;99.90;;;;;;5057537;28;20436;-70
2022/03/28 02:02:48;;;;;;;0.50;0.50;;;6.30;99.90;;;;;;5053357;28;20424;-68
2022/03/28 02:05:35;;;;;;;0.50;0.50;;;6.20;99.90;;;;;;5054360;28;20429;-71
2022/03/28 02:08:22;;;;;;;0.50;0.50;;;6.20;99.90;;;;;;5053770;28;20475;-69
2022/03/28 02:11:10;;;;;;;0.50;0.50;;;6.20;99.90;;;;;;5056322;28;20432;-69
2022/03/28 02:13:58;;;;;;;0.40;0.40;;;6.20;99.90;;;;;;5056974;28;20425;-69
2022/03/28 02:16:44;;;;;;;0.50;0.50;;;6.20;99.90;;;;;;5056279;28;20424;-69
2022/03/28 02:19:31;;;;;;;0.50;0.50;;;6.10;99.90;;;;;;5055830;28;20459;-69
2022/03/28 02:22:19;;;;;;;0.50;0.50;;;6.20;99.90;;;;;;5061445;28;20431;-68
2022/03/28 02:25:08;;;;;;;0.50;0.50;;;6.20;99.90;;;;;;5062018;28;20428;-69
2022/03/28 02:27:56;;;;;;;0.40;0.40;;;6.10;99.90;;;;;;5062162;28;21095;-70
2022/03/28 02:30:43;;;;;;;0.50;0.50;;;6.20;99.90;;;;;;5062277;28;20432;-71
2022/03/28 02:33:30;;;;;;;0.40;0.40;;;6.10;99.90;;;;;;5062912;28;20429;-69
2022/03/28 02:36:17;;;;;;;0.50;0.50;;;6.10;99.90;;;;;;5062714;28;20427;-70
2022/03/28 02:39:04;;;;;;;0.50;0.50;;;6.10;99.90;;;;;;5065575;28;20471;-69
2022/03/28 02:41:51;;;;;;;0.50;0.50;;;6.00;99.90;;;;;;5064699;28;20452;-69
2022/03/28 02:44:39;;;;;;;0.50;0.50;;;6.00;99.90;;;;;;5064222;28;20424;-69
2022/03/28 02:47:26;;;;;;;0.50;0.50;;;6.00;99.90;;;;;;5064636;28;20479;-70
2022/03/28 02:50:13;;;;;;;0.50;0.50;;;6.00;99.90;;;;;;5055650;28;20519;-68
2022/03/28 02:53:00;;;;;;;0.50;0.50;;;5.90;99.90;;;;;;5053592;28;20435;-68
2022/03/28 02:55:47;;;;;;;0.50;0.50;;;5.90;99.90;;;;;;5053600;28;20433;-67
2022/03/28 02:58:34;;;;;;;0.50;0.50;;;6.00;99.90;;;;;;5034571;28;20438;-68
2022/03/28 03:01:23;;;;;;;0.60;0.60;;;6.00;99.90;;;;;;5034615;28;20429;-68
2022/03/28 03:04:09;;;;;;;0.50;0.50;;;5.90;99.90;;;;;;5035434;28;20433;-68
2022/03/28 03:06:56;;;;;;;0.50;0.50;;;5.90;99.90;;;;;;5035238;28;20432;-69
2022/03/28 03:09:44;;;;;;;0.50;0.50;;;5.80;99.90;;;;;;5033948;28;20460;-70
2022/03/28 03:12:31;;;;;;;0.50;0.50;;;5.90;99.90;;;;;;5035787;28;20804;-69
2022/03/28 03:15:18;;;;;;;0.80;0.80;;;5.80;99.90;;;;;;5034029;28;20413;-70
2022/03/28 03:18:06;;;;;;;0.50;0.50;;;5.70;99.90;;;;;;5036162;28;20457;-69
2022/03/28 03:20:53;;;;;;;0.50;0.50;;;5.70;99.90;;;;;;5035895;28;20429;-68
2022/03/28 03:23:40;;;;;;;0.50;0.50;;;5.70;99.90;;;;;;5035527;28;20811;-68
2022/03/28 03:26:27;;;;;;;0.50;0.50;;;5.60;99.90;;;;;;5035614;28;20421;-68
2022/03/28 03:29:14;;;;;;;0.50;0.50;;;5.60;99.90;;;;;;5034678;28;20560;-68
2022/03/28 03:32:03;;;;;;;0.50;0.50;;;5.60;99.90;;;;;;5036007;28;20786;-68
2022/03/28 03:34:51;;;;;;;0.50;0.50;;;5.60;99.90;;;;;;5035591;28;20422;-70
2022/03/28 03:37:39;;;;;;;0.93;0.93;;;5.60;99.90;;;;;;5034695;28;20418;-69
2022/03/28 03:40:26;;;;;;;0.93;0.90;;;5.60;99.90;;;;;;5035083;28;20429;-69
2022/03/28 03:43:13;;;;;;;0.60;0.60;;;5.50;99.90;;;;;;5034593;28;20425;-69
2022/03/28 03:46:00;;;;;;;0.50;0.50;;;5.50;99.90;;;;;;5035207;28;20549;-68
2022/03/28 03:48:47;;;;;;;0.77;0.77;;;5.40;99.90;;;;;;5034918;28;20476;-69
2022/03/28 03:51:35;;;;;;;0.50;0.50;;;5.40;99.90;;;;;;5034807;28;20433;-68
2022/03/28 03:54:22;;;;;;;0.50;0.50;;;5.40;99.90;;;;;;5036092;28;20429;-70
2022/03/28 03:57:09;;;;;;;1.00;0.90;;;5.40;99.90;;;;;;5053716;28;20428;-68
2022/03/28 03:59:56;;;;;;;0.70;0.70;;;5.40;99.90;;;;;;5054673;28;20845;-70
2022/03/28 04:02:43;;;;;;;0.50;0.50;;;5.40;99.90;;;;;;5054387;28;20512;-67
2022/03/28 04:05:31;;;;;;;1.20;1.00;;;5.40;99.90;;;;;;5058556;28;20936;-68
2022/03/28 04:08:19;;;;;;;0.60;0.60;;;5.30;99.90;;;;;;5057165;28;20610;-69
2022/03/28 04:11:07;;;;;;;3.90;0.90;;;5.30;99.90;;;;;;5057259;28;20436;-70
2022/03/28 04:13:54;;;;;;;2.23;2.00;;;5.30;99.90;;;;;;5059279;28;20512;-68
2022/03/28 04:16:41;;;;;;;0.50;0.50;;;5.20;99.90;;;;;;5058919;28;20420;-70
2022/03/28 04:19:28;;;;;;;2.93;2.73;;;5.20;99.90;;;;;;5059079;28;20440;-69
2022/03/28 04:22:15;;;;;;;1.47;0.70;;;5.20;99.90;;;;;;5058939;28;20929;-69
2022/03/28 04:25:03;;;;;;;0.50;0.50;;;5.20;99.90;;;;;;5058508;28;20420;-69
2022/03/28 04:27:50;;;;;;;0.50;0.50;;;5.20;99.90;;;;;;5058515;28;20417;-68
2022/03/28 04:30:38;;;;;;;0.50;0.50;;;5.10;99.90;;;;;;5058594;28;20424;-70
2022/03/28 04:33:25;;;;;;;0.50;0.50;;;5.10;99.90;;;;;;5058143;28;20964;-69
2022/03/28 04:36:12;;;;;;;0.50;0.50;;;5.10;99.90;;;;;;5059156;28;20420;-70
2022/03/28 04:38:59;;;;;;;0.90;0.90;;;5.10;99.90;;;;;;5059970;28;20440;-69
2022/03/28 04:41:47;;;;;;;0.50;0.50;;;5.10;99.90;;;;;;5059470;28;20494;-70
2022/03/28 04:44:34;;;;;;;0.50;0.50;;;5.10;99.90;;;;;;5058429;28;20756;-70
2022/03/28 04:47:21;;;;;;;0.50;0.50;;;5.10;99.90;;;;;;5057654;28;20793;-70
2022/03/28 04:50:09;;;;;;;0.83;0.83;;;4.90;99.90;;;;;;5057383;28;20424;-69
2022/03/28 04:52:56;;;;;;;1.60;1.53;;;5.00;99.90;;;;;;5057970;28;20429;-70
2022/03/28 04:55:43;;;;;;;0.40;0.40;;;5.00;99.90;;;;;;5058249;28;20420;-68
2022/03/28 04:58:32;;;;;;;0.50;0.50;;;5.10;99.90;;;;;;5037606;28;20440;-70
2022/03/28 05:01:19;;;;;;;0.50;0.50;;;5.00;99.90;;;;;;5037665;28;20418;-69
2022/03/28 05:04:06;;;;;;;0.50;0.50;;;5.00;99.90;;;;;;5037501;28;20432;-69
2022/03/28 05:06:52;;;;;;;2.03;1.93;;;5.00;99.90;;;;;;5037195;28;20428;-70
2022/03/28 05:09:39;;;;;;;0.77;0.77;;;5.00;99.90;;;;;;5037530;28;20473;-70
2022/03/28 05:12:27;;;;;;;0.50;0.50;;;5.10;99.90;;;;;;5037217;28;20428;-69
2022/03/28 05:15:15;;;;;;;0.50;0.50;;;5.10;99.90;;;;;;5035210;28;20426;-69
2022/03/28 05:18:03;;;;;;;0.50;0.50;;;5.10;99.90;;;;;;5037005;28;20449;-70
2022/03/28 05:20:50;;;;;;;0.70;0.70;;;5.10;99.90;;;;;;5036710;28;20421;-69
2022/03/28 05:23:37;;;;;;;0.60;0.60;;;5.20;99.90;;;;;;5037006;28;20429;-69
2022/03/28 05:26:24;;;;;;;0.80;0.80;;;5.30;99.90;;;;;;5036798;28;20467;-68
2022/03/28 05:29:11;;;;;;;1.10;1.10;;;5.40;99.90;;;;;;5037142;28;20990;-69
2022/03/28 05:31:59;;;;;;;0.50;0.50;;;5.30;99.90;;;;;;5035789;28;20941;-69
2022/03/28 05:34:46;;;;;;;0.50;0.50;;;5.40;99.90;;;;;;5035345;28;20426;-70
2022/03/28 05:37:34;;;;;;;0.50;0.50;;;5.40;99.90;;;;;;5035704;28;20440;-70
2022/03/28 05:40:21;;;;;;;0.50;0.50;;;5.40;99.90;;;;;;5043476;28;20431;-69
2022/03/28 05:43:08;;;;;;;1.00;1.00;;;5.50;99.90;;;;;;5055890;28;20417;-70
2022/03/28 05:45:55;;;;;;;0.80;0.80;;;5.50;99.90;;;;;;5056089;28;20933;-69
2022/03/28 05:48:43;;;;;;;1.00;0.93;;;5.50;99.90;;;;;;5055715;28;20994;-71
2022/03/28 05:51:30;;;;;;;0.50;0.50;;;5.60;99.90;;;;;;5055727;28;20425;-72
2022/03/28 05:54:17;;;;;;;0.50;0.50;;;5.60;99.90;;;;;;5048058;28;20425;-69
2022/03/28 05:57:05;;;;;;;0.50;0.50;;;5.70;99.90;;;;;;5052942;28;20425;-70
2022/03/28 05:59:52;;;;;;;2.10;1.13;;;5.70;99.90;;;;;;5054863;28;20583;-72
2022/03/28 06:02:39;;;;;;;0.50;0.50;;;5.80;99.90;;;;;;5054375;28;20428;-68
2022/03/28 06:05:27;;;;;;;1.47;0.60;;;5.90;99.90;;;;;;5054212;28;20428;-70
2022/03/28 06:08:14;;;;;;;1.63;1.63;;;6.10;99.90;;;;;;5054525;28;20472;-70
2022/03/28 06:11:03;;;;;;;0.50;0.50;;;6.70;99.90;;;;;;5054699;28;20448;-71
2022/03/28 06:13:50;;;;;;;0.50;0.50;;;6.90;99.90;;;;;;5059612;28;20937;-70
2022/03/28 06:16:37;;;;;;;0.50;0.50;;;6.80;99.90;;;;;;5060480;28;20432;-71
2022/03/28 06:19:24;;;;;;;0.50;0.50;;;6.70;99.90;;;;;;5058408;28;20445;-69
2022/03/28 06:22:12;;;;;;;0.50;0.50;;;6.60;99.90;;;;;;5057640;28;20425;-71
2022/03/28 06:25:00;;;;;;;0.50;0.50;;;6.60;99.90;;;;;;5055175;28;20425;-70
2022/03/28 06:27:46;;;;;;;0.60;0.60;;;6.60;99.90;;;;;;5052742;28;20428;-70
2022/03/28 06:30:34;;;;;;;0.50;0.50;;;6.70;99.90;;;;;;5048005;28;20472;-69
2022/03/28 06:33:21;;;;;;;2.53;2.43;;;6.80;99.90;;;;;;5053958;28;20443;-69
2022/03/28 06:36:09;;;;;;;1.07;1.07;;;6.80;99.90;;;;;;5053521;28;20431;-69
2022/03/28 06:38:57;;;;;;;2.40;1.70;;;6.90;99.90;;;;;;5054601;28;21003;-69
2022/03/28 06:41:44;;;;;;;0.50;0.50;;;6.90;99.90;;;;;;5055235;28;20445;-71
2022/03/28 06:44:31;;;;;;;5.10;3.70;;;7.10;99.90;;;;;;5057467;28;20428;-69
2022/03/28 06:47:18;;;;;;;1.03;1.03;;;7.10;99.90;;;;;;5067292;28;20814;-71
2022/03/28 06:50:07;;;;;;;1.37;1.27;;;7.10;99.90;;;;;;5043194;28;20467;-70
2022/03/28 06:52:55;;;;;;;1.07;0.90;;;7.10;99.90;;;;;;5052257;28;20515;-69
2022/03/28 06:55:43;;;;;;;0.87;0.87;;;7.10;99.90;;;;;;5053637;28;20979;-71
2022/03/28 06:58:30;;;;;;;0.70;0.70;;;7.30;99.90;;;;;;5033419;28;20448;-71
2022/03/28 07:01:17;;;;;;;1.80;1.37;;;7.50;99.90;;;;;;5050238;28;20793;-67
2022/03/28 07:04:04;;;;;;;0.70;0.70;;;7.50;99.90;;;;;;5052136;28;20432;-69
2022/03/28 07:06:51;;;;;;;0.50;0.50;;;7.50;99.90;;;;;;5051278;28;20420;-69
2022/03/28 07:09:39;;;;;;;0.50;0.50;;;7.60;99.90;;;;;;5040866;28;20479;-69
2022/03/28 07:12:27;;;;;;;0.50;0.50;;;7.70;99.90;;;;;;5050612;28;20447;-68
2022/03/28 07:15:15;;;;;;;0.50;0.50;;;7.80;99.90;;;;;;5050787;28;20435;-70
2022/03/28 07:18:08;;;;;;;0.60;0.60;;;7.80;99.90;;;;;;5050322;28;20986;-68
2022/03/28 07:20:55;;;;;;;0.73;0.73;;;7.90;99.90;;;;;;5050821;28;20571;-70
2022/03/28 07:23:43;;;;;;;0.77;0.77;;;8.00;99.90;;;;;;5048694;28;20428;-70
2022/03/28 07:26:30;;;;;;;0.83;0.83;;;8.10;99.90;;;;;;5051929;28;20546;-71
2022/03/28 07:29:20;;;;;;;0.70;0.70;;;8.20;99.90;;;;;;5051087;28;20476;-69
2022/03/28 07:32:08;;;;;;;0.60;0.60;;;8.30;99.90;;;;;;5048348;28;20444;-69
2022/03/28 07:34:55;;;;;;;1.20;1.10;;;8.30;99.90;;;;;;5050358;28;21150;-72
2022/03/28 07:37:43;;;;;;;0.50;0.50;;;8.40;99.90;;;;;;5050152;28;20420;-71
2022/03/28 07:40:30;;;;;;;0.90;0.90;;;8.50;99.90;;;;;;5050834;28;20451;-70
2022/03/28 07:43:17;;;;;;;4.47;2.07;;;8.50;99.90;;;;;;5050730;28;20432;-69
2022/03/28 07:46:06;;;;;;;1.27;1.00;;;8.60;99.90;;;;;;5049825;28;21161;-68
2022/03/28 07:48:55;;;;;;;10.80;3.73;;;8.70;99.90;;;;;;5051556;28;20464;-70
2022/03/28 07:51:42;;;;;;;2.40;2.20;;;8.80;99.90;;;;;;5045478;28;20447;-69
2022/03/28 07:54:29;;;;;;;0.50;0.50;;;8.90;99.90;;;;;;5050395;28;20960;-69
2022/03/28 07:57:17;;;;;;;0.60;0.60;;;9.00;99.90;;;;;;5049508;28;20592;-71
2022/03/28 08:00:10;;;;;;;1.43;1.33;;;9.10;99.90;;;;;;5044329;28;20448;-69
2022/03/28 08:02:59;;;;;;;2.20;2.00;;;9.20;99.90;;;;;;5051329;28;21010;-69
2022/03/28 08:05:48;;;;;;;0.93;0.93;;;9.30;99.90;;;;;;5046461;28;20825;-70
2022/03/28 08:08:36;;;;;;;1.97;1.13;;;9.20;99.90;;;;;;5050548;28;20464;-70
2022/03/28 08:11:23;;;;;;;0.50;0.50;;;9.30;99.90;;;;;;5052042;28;20540;-69
2022/03/28 08:14:10;;;;;;;4.70;3.90;;;9.40;99.90;;;;;;5049992;28;20443;-70
2022/03/28 08:16:57;;;;;;;1.53;1.37;;;9.50;99.90;;;;;;5050022;28;20440;-72
2022/03/28 08:19:46;;;;;;;0.93;0.93;;;9.60;99.90;;;;;;5044622;28;20454;-70
2022/03/28 08:22:33;;;;;;;1.33;1.13;;;9.60;99.90;;;;;;5050492;28;20425;-68
2022/03/28 08:25:23;;;;;;;3.03;2.33;;;9.70;99.90;;;;;;5050606;28;20432;-70
2022/03/28 08:28:10;;;;;;;0.70;0.70;;;9.90;99.90;;;;;;5051424;28;20842;-69
2022/03/28 08:30:57;;;;;;;0.50;0.50;;;10.00;99.90;;;;;;5048710;28;20480;-71
2022/03/28 08:33:44;;;;;;;0.50;0.50;;;10.10;99.90;;;;;;5040870;28;20821;-71
2022/03/28 08:36:32;;;;;;;1.07;1.07;;;10.20;99.90;;;;;;5051314;28;20433;-70
2022/03/28 08:39:19;;;;;;;1.60;1.53;;;10.20;99.90;;;;;;5049938;28;20444;-71
2022/03/28 08:42:07;;;;;;;0.50;0.50;;;10.30;99.90;;;;;;5050782;28;20440;-71
2022/03/28 08:44:54;;;;;;;2.60;1.27;;;10.30;99.90;;;;;;5050788;28;20440;-70
2022/03/28 08:47:42;;;;;;;0.60;0.60;;;10.40;99.90;;;;;;5049494;28;20425;-70
2022/03/28 08:50:30;;;;;;;0.97;0.97;;;10.30;99.90;;;;;;5053879;28;21016;-71
2022/03/28 08:53:18;;;;;;;0.50;0.50;;;10.50;99.90;;;;;;5053427;28;20933;-70
2022/03/28 08:56:07;;;;;;;1.57;1.03;;;10.60;99.90;;;;;;5054234;28;20439;-72
2022/03/28 08:58:55;;;;;;;1.47;1.40;;;10.70;99.90;;;;;;5054048;28;20459;-72
2022/03/28 09:01:45;;;;;;;1.23;1.13;;;10.80;99.90;;;;;;5039598;28;20542;-71
2022/03/28 09:04:36;;;;;;;2.80;2.57;;;10.90;99.90;;;;;;5054639;28;20466;-73
2022/03/28 09:07:26;;;;;;;1.03;0.70;;;11.00;99.90;;;;;;5055534;28;20424;-71
2022/03/28 09:10:16;;;;;;;0.50;0.50;;;11.00;99.90;;;;;;5054843;28;20512;-70
2022/03/28 09:13:06;;;;;;;0.80;0.50;;;11.20;99.90;;;;;;5053956;28;20819;-71
2022/03/28 09:15:55;;;;;;;4.07;3.70;;;11.30;99.90;;;;;;5054226;28;20429;-71
2022/03/28 09:18:45;;;;;;;3.13;1.57;;;11.40;99.90;;;;;;5053891;28;20440;-70
2022/03/28 09:21:32;;;;;;;23.87;8.43;;;11.50;99.90;;;;;;5045242;28;20425;-69
2022/03/28 09:24:18;;;;;;;2.97;1.13;;;11.50;99.90;;;;;;5049683;28;20444;-68
2022/03/28 09:27:18;;;;;;;2.30;1.20;;;11.60;99.90;;;;;;5050820;28;20455;-70
2022/03/28 09:30:07;;;;;;;0.50;0.50;;;11.70;99.90;;;;;;5044659;28;21035;-71
2022/03/28 09:32:56;;;;;;;2.57;1.10;;;11.90;99.90;;;;;;5051059;28;20480;-70
2022/03/28 09:35:47;;;;;;;0.73;0.73;;;12.00;99.90;;;;;;5055107;28;20424;-69
2022/03/28 09:38:35;;;;;;;0.50;0.50;;;12.00;99.90;;;;;;5052554;28;20441;-72
2022/03/28 09:41:24;;;;;;;1.17;0.90;;;12.10;99.90;;;;;;5052404;28;20433;-70
2022/03/28 09:44:13;;;;;;;1.83;1.57;;;12.20;99.90;;;;;;5054384;28;20425;-70
2022/03/28 09:47:06;;;;;;;3.23;2.10;;;12.30;99.90;;;;;;5055463;28;20444;-72
2022/03/28 09:49:57;;;;;;;1.10;1.00;;;12.30;99.90;;;;;;5054349;28;21047;-70
2022/03/28 09:52:44;;;;;;;5.33;1.90;;;12.40;99.90;;;;;;5052242;28;20449;-69
2022/03/28 09:55:49;;;;;;;1.30;1.07;;;12.50;99.90;;;;;;5056032;28;20432;-71
2022/03/28 09:58:46;;;;;;;0.50;0.50;;;12.60;99.90;;;;;;5053459;28;20460;-71
2022/03/28 10:01:39;;;;;;;2.40;1.03;;;12.60;99.90;;;;;;5051830;28;20432;-73
2022/03/28 10:04:28;;;;;;;1.00;0.80;;;12.70;99.90;;;;;;5052927;28;20424;-73
2022/03/28 10:07:16;;;;;;;1.27;0.70;;;12.80;99.90;;;;;;5051988;28;20421;-72
2022/03/28 10:10:04;;;;;;;0.50;0.50;;;12.90;99.90;;;;;;5051839;28;20468;-68
2022/03/28 10:12:52;;;;;;;0.90;0.70;;;12.90;99.90;;;;;;5049676;28;20789;-71
2022/03/28 10:15:39;;;;;;;0.70;0.70;;;12.90;99.90;;;;;;5049829;28;20793;-69
2022/03/28 10:18:30;;;;;;;0.50;0.50;;;13.00;99.90;;;;;;5049568;28;20448;-72
2022/03/28 10:21:22;;;;;;;0.70;0.63;;;13.00;99.90;;;;;;5050825;28;20449;-72
2022/03/28 10:24:13;;;;;;;0.73;0.73;;;13.00;99.90;;;;;;5051361;28;20447;-73
2022/03/28 10:27:02;;;;;;;6.37;2.67;;;13.20;99.90;;;;;;5053384;28;20575;-68
2022/03/28 10:29:49;;;;;;;1.13;1.03;;;13.20;99.90;;;;;;5052198;28;20472;-71
2022/03/28 10:32:38;;;;;;;0.50;0.50;;;13.30;99.90;;;;;;5051949;28;20440;-69
2022/03/28 10:35:26;;;;;;;2.70;1.80;;;13.30;99.90;;;;;;5037944;28;20439;-69
2022/03/28 10:38:18;;;;;;;0.70;0.70;;;13.40;99.90;;;;;;5048636;28;20479;-69
2022/03/28 10:41:06;;;;;;;0.70;0.70;;;13.40;99.90;;;;;;5053909;28;20432;-69
2022/03/28 10:44:02;;;;;;;0.80;0.60;;;13.50;99.90;;;;;;5050953;28;21070;-71
2022/03/28 10:47:05;;;;;;;0.50;0.50;;;13.60;99.90;;;;;;5051884;28;20807;-70
2022/03/28 10:49:55;;;;;;;0.67;0.67;;;13.60;99.90;;;;;;5038725;28;20610;-69
2022/03/28 10:53:04;;;;;;;0.50;0.50;;;13.70;99.90;;;;;;5052008;28;20425;-71
2022/03/28 10:55:54;;;;;;;2.40;0.93;;;13.70;99.90;;;;;;5031829;28;20455;-70
2022/03/28 10:58:43;;;;;;;0.50;0.50;;;13.80;99.90;;;;;;5046819;28;20477;-73
2022/03/28 11:01:33;;;;;;;2.13;1.20;;;13.90;99.90;;;;;;5037073;28;20418;-69
2022/03/28 11:04:23;;;;;;;1.37;1.23;;;14.00;99.90;;;;;;5051084;28;20983;-72
2022/03/28 11:07:21;;;;;;;1.53;1.37;;;14.10;99.90;;;;;;5048658;28;20955;-72
2022/03/28 11:10:13;;;;;;;0.40;0.40;;;14.10;99.90;;;;;;5046841;28;20472;-71
2022/03/28 11:13:15;;;;;;;1.40;1.20;;;14.10;99.90;;;;;;5047456;28;20436;-69
2022/03/28 11:16:02;;;;;;;0.40;0.40;;;14.10;99.90;;;;;;5041275;28;20428;-70
2022/03/28 11:19:25;;;;;;;1.33;0.93;;;14.10;99.90;;;;;;5051294;28;20448;-69
2022/03/28 11:22:12;;;;;;;0.50;0.50;;;14.20;99.90;;;;;;5042092;28;20848;-70
2022/03/28 11:24:59;;;;;;;2.20;1.53;;;14.20;99.90;;;;;;5047071;28;20447;-70
2022/03/28 11:27:47;;;;;;;0.87;0.70;;;14.20;99.90;;;;;;5050199;28;20432;-70
2022/03/28 11:30:38;;;;;;;0.50;0.50;;;14.10;99.90;;;;;;5052227;28;20834;-70
2022/03/28 11:33:31;;;;;;;0.50;0.50;;;14.20;99.90;;;;;;5050829;28;20432;-72
2022/03/28 11:36:21;;;;;;;0.50;0.50;;;14.20;99.90;;;;;;5050408;28;21118;-69
2022/03/28 11:39:11;;;;;;;2.67;0.97;;;14.20;99.90;;;;;;5051666;28;20452;-71
2022/03/28 11:41:58;;;;;;;2.87;1.50;;;14.20;99.90;;;;;;5050674;28;20425;-70
2022/03/28 11:44:47;;;;;;;1.87;1.43;;;14.30;99.90;;;;;;5050399;28;20436;-72
2022/03/28 11:47:35;;;;;;;0.50;0.50;;;14.30;99.90;;;;;;5037695;28;20428;-70
2022/03/28 11:50:22;;;;;;;0.50;0.50;;;14.40;99.90;;;;;;5052185;28;20465;-68
2022/03/28 11:53:14;;;;;;;1.07;1.03;;;14.50;99.90;;;;;;5050371;28;20443;-70
2022/03/28 11:56:01;;;;;;;0.70;0.70;;;14.50;99.90;;;;;;5051168;28;20806;-71
2022/03/28 11:58:48;;;;;;;2.80;1.80;;;14.50;99.90;;;;;;5051032;28;20467;-71
2022/03/28 12:01:37;;;;;;;0.83;0.83;;;14.50;99.90;;;;;;5049753;28;20432;-69
2022/03/28 12:04:24;;;;;;;1.33;1.03;;;14.60;99.90;;;;;;5050293;28;20432;-69
2022/03/28 12:07:11;;;;;;;0.50;0.50;;;14.60;99.90;;;;;;5051981;28;20424;-70
2022/03/28 12:09:58;;;;;;;0.63;0.63;;;14.60;99.90;;;;;;5051493;28;20464;-72
2022/03/28 12:12:45;;;;;;;1.40;1.30;;;14.60;99.90;;;;;;5047967;28;20468;-69
2022/03/28 12:15:34;;;;;;;0.70;0.70;;;14.70;99.90;;;;;;5051891;28;20435;-70
2022/03/28 12:18:29;;;;;;;1.07;1.07;;;14.80;99.90;;;;;;5048108;28;20437;-71
2022/03/28 12:21:18;;;;;;;1.03;0.93;;;14.80;99.90;;;;;;5049301;28;20425;-72
2022/03/28 12:24:06;;;;;;;1.23;0.90;;;14.70;99.90;;;;;;5053444;28;20867;-68
2022/03/28 12:26:59;;;;;;;0.87;0.87;;;14.80;99.90;;;;;;5057410;28;20451;-72
2022/03/28 12:29:47;;;;;;;0.50;0.50;;;14.90;99.90;;;;;;5055831;28;20452;-69
2022/03/28 12:32:34;;;;;;;2.43;1.53;;;14.90;99.90;;;;;;5054648;28;20428;-69
2022/03/28 12:35:23;;;;;;;1.63;1.53;;;14.90;99.90;;;;;;5054983;28;20435;-71
2022/03/28 12:38:15;;;;;;;0.50;0.50;;;14.90;99.90;;;;;;5050579;28;20482;-71
2022/03/28 12:41:05;;;;;;;0.77;0.70;;;14.90;99.90;;;;;;5056016;28;20535;-72
2022/03/28 12:43:52;;;;;;;1.13;1.07;;;15.00;99.90;;;;;;5051837;28;20809;-71
2022/03/28 12:46:39;;;;;;;0.93;0.60;;;15.10;99.90;;;;;;5054845;28;20436;-71
2022/03/28 12:49:26;;;;;;;0.60;0.60;;;15.10;99.90;;;;;;5054884;28;20236;-70
2022/03/28 12:52:19;;;;;;;0.60;0.47;;;15.10;99.90;;;;;;5053883;28;21003;-71
2022/03/28 12:55:07;;;;;;;0.70;0.70;;;15.10;99.90;;;;;;5055745;28;20425;-71
2022/03/28 12:57:56;;;;;;;0.40;0.40;;;15.40;99.90;;;;;;5053368;28;21159;-69
2022/03/28 13:00:44;;;;;;;0.90;0.70;;;15.70;99.90;;;;;;5051633;28;20420;-69
2022/03/28 13:03:32;;;;;;;0.87;0.87;;;16.00;99.90;;;;;;5052410;28;20609;-69
2022/03/28 13:06:21;;;;;;;0.87;0.80;;;16.30;99.90;;;;;;5053335;28;20217;-70
2022/03/28 13:09:11;;;;;;;0.93;0.70;;;16.40;99.90;;;;;;5053017;28;20251;-72
2022/03/28 13:12:07;;;;;;;0.40;0.40;;;16.80;99.90;;;;;;5051505;28;20218;-71
2022/03/28 13:14:54;;;;;;;0.50;0.50;;;17.30;99.90;;;;;;5051484;28;20209;-72
2022/03/28 13:17:43;;;;;;;1.45;0.77;;;18.00;99.90;;;;;;5053955;28;20205;-71
2022/03/28 13:20:31;;;;;;;2.85;2.75;;;18.90;97.30;;;;;;5051183;28;20237;-72
2022/03/28 13:23:23;;;;;;;0.55;0.55;;;20.10;95.50;;;;;;5051323;28;20208;-68
2022/03/28 13:26:14;;;;;;;1.20;0.82;;;21.50;93.50;;;;;;5053937;28;20210;-71
2022/03/28 13:29:18;;;;;;;0.40;0.40;;;23.10;89.80;;;;;;5053793;28;20222;-69
2022/03/28 13:32:06;;;;;;;0.45;0.45;;;24.20;82.70;;;;;;5054838;28;20222;-69
2022/03/28 13:34:53;;;;;;;2.30;0.88;;;24.60;77.10;;;;;;5054556;28;20206;-71
2022/03/28 13:37:40;;;;;;;5.20;1.35;;;24.40;73.60;;;;;;5061176;28;20209;-72
2022/03/28 13:40:28;;;;;;;0.80;0.80;;;24.20;70.60;;;;;;5072554;28;20208;-68
2022/03/28 13:43:18;;;;;;;0.50;0.50;;;24.00;71.80;;;;;;5053137;28;20210;-69
2022/03/28 13:46:09;;;;;;;1.50;1.10;;;24.20;71.20;;;;;;5053637;28;20587;-69
2022/03/28 13:48:58;;;;;;;1.52;1.42;;;24.40;68.20;;;;;;5054746;28;20225;-68
2022/03/28 13:51:45;;;;;;;0.50;0.50;;;24.30;67.20;;;;;;5053921;28;20217;-69
2022/03/28 13:54:33;;;;;;;0.85;0.68;;;24.70;67.20;;;;;;5052233;28;20212;-70
2022/03/28 13:57:20;;;;;;;1.48;0.93;;;25.70;65.10;;;;;;5051869;28;20205;-72
2022/03/28 14:00:11;;;;;;;0.80;0.80;;;26.40;61.60;;;;;;5049578;28;20214;-69
2022/03/28 14:02:58;;;;;;;0.52;0.47;;;26.80;61.70;;;;;;5049758;28;20206;-68
2022/03/28 14:05:51;;;;;;;0.50;0.50;;;27.70;59.70;;;;;;5061414;28;20684;-70
2022/03/28 14:08:39;;;;;;;0.40;0.40;;;27.70;57.00;;;;;;5064175;28;20241;-70
2022/03/28 14:11:26;;;;;;;0.70;0.70;;;27.00;57.60;;;;;;5052779;28;20228;-67
2022/03/28 14:14:13;;;;;;;0.40;0.40;;;27.30;57.00;;;;;;5051187;28;20198;-68
2022/03/28 14:17:01;;;;;;;0.40;0.40;;;27.70;56.70;;;;;;5052082;28;20209;-68
2022/03/28 14:19:49;;;;;;;1.27;1.17;;;27.70;55.50;;;;;;5049363;28;21636;-69
2022/03/28 14:22:37;;;;;;;3.75;2.00;;;27.80;55.20;;;;;;5045385;28;20258;-68
2022/03/28 14:25:26;;;;;;;0.68;0.68;;;27.80;54.10;;;;;;5049288;28;20213;-69
2022/03/28 14:30:46;;;;;;;0.40;0.40;;;27.30;54.00;;;;;;5063519;28;20216;-71
2022/03/28 14:33:35;;;;;;;0.47;0.47;;;26.90;55.00;;;;;;5071984;28;20224;-71
2022/03/28 14:36:22;;;;;;;1.75;0.90;;;27.40;54.60;;;;;;5073942;28;20205;-71
2022/03/28 14:39:09;;;;;;;4.55;1.92;;;28.10;53.10;;;;;;5067154;28;20685;-71
2022/03/28 14:41:56;;;;;;;0.40;0.40;;;27.50;53.50;;;;;;5060890;28;20610;-71
2022/03/28 14:44:44;;;;;;;0.40;0.40;;;27.10;54.80;;;;;;5063102;28;20585;-70
2022/03/28 14:47:31;;;;;;;0.40;0.40;;;27.10;55.10;;;;;;5060276;28;20205;-71